Time;durP1;ratioP1;P1;durP2;ratioP2;P2;SDS_P1;SDS_P2;PMS_P1;PMS_P2;Temp;Humidity;BMP_temperature;BMP_pressure;BME280_temperature;BME280_humidity;BME280_pressure;Samples;Min_cycle;Max_cycle;Signal;HPM_P1;HPM_P2
2021/11/25 00:02:23;;;;;;;14.37;4.50;;;23.70;99.90;;;;;;5071979;28;20585;-70
2021/11/25 00:04:51;;;;;;;12.67;4.37;;;23.80;99.90;;;;;;5070302;28;20241;-70
2021/11/25 00:07:18;;;;;;;9.63;3.73;;;23.80;99.90;;;;;;5073048;28;20554;-70
2021/11/25 00:09:47;;;;;;;17.47;4.57;;;23.80;99.90;;;;;;5070256;28;20232;-70
2021/11/25 00:12:15;;;;;;;8.73;3.60;;;23.80;99.90;;;;;;5071769;28;20188;-69
2021/11/25 00:14:42;;;;;;;11.33;3.73;;;23.80;99.90;;;;;;5072990;28;20223;-70
2021/11/25 00:17:09;;;;;;;11.53;4.37;;;23.80;99.90;;;;;;5072753;28;20214;-70
2021/11/25 00:19:37;;;;;;;8.53;3.73;;;23.90;99.90;;;;;;5074367;28;20249;-69
2021/11/25 00:22:04;;;;;;;13.40;4.07;;;24.00;99.90;;;;;;5073025;28;20190;-70
2021/11/25 00:24:32;;;;;;;10.00;3.83;;;23.90;99.90;;;;;;5069371;28;20251;-70
2021/11/25 00:26:59;;;;;;;16.60;4.67;;;24.00;99.90;;;;;;5072629;28;20192;-70
2021/11/25 00:29:27;;;;;;;16.27;4.47;;;24.10;99.90;;;;;;5071291;28;20191;-70
2021/11/25 00:31:54;;;;;;;10.30;3.93;;;24.30;99.90;;;;;;5071264;28;20179;-69
2021/11/25 00:34:21;;;;;;;9.40;4.03;;;24.40;99.90;;;;;;5074423;28;20199;-71
2021/11/25 00:36:49;;;;;;;9.47;3.77;;;24.30;99.90;;;;;;5072671;28;20186;-70
2021/11/25 00:39:16;;;;;;;7.37;3.70;;;24.40;99.90;;;;;;5070701;28;20206;-69
2021/11/25 00:41:46;;;;;;;5.73;3.80;;;24.30;99.90;;;;;;5073024;28;20183;-69
2021/11/25 00:44:14;;;;;;;8.30;3.40;;;24.30;99.90;;;;;;5073050;28;20191;-70
2021/11/25 00:46:41;;;;;;;11.07;4.37;;;24.40;99.90;;;;;;5076739;28;20184;-71
2021/11/25 00:49:09;;;;;;;8.00;4.07;;;24.60;99.90;;;;;;5074927;28;20221;-69
2021/11/25 00:51:37;;;;;;;8.87;3.87;;;24.70;99.90;;;;;;5074425;28;20191;-70
2021/11/25 00:54:05;;;;;;;13.93;4.10;;;24.70;99.90;;;;;;5074791;28;20276;-70
2021/11/25 00:56:32;;;;;;;7.53;3.97;;;24.70;99.90;;;;;;5075629;28;20640;-71
2021/11/25 00:59:00;;;;;;;13.77;3.57;;;24.80;99.90;;;;;;5073413;28;20236;-69
2021/11/25 01:01:27;;;;;;;8.00;3.90;;;24.80;99.90;;;;;;5075879;28;20590;-69
2021/11/25 01:03:54;;;;;;;15.47;4.23;;;24.60;99.90;;;;;;5071848;28;20241;-69
2021/11/25 01:06:22;;;;;;;8.33;3.87;;;24.70;99.90;;;;;;5073030;28;20575;-70
2021/11/25 01:08:49;;;;;;;9.63;3.50;;;24.80;99.90;;;;;;5072573;28;20241;-69
2021/11/25 01:11:21;;;;;;;5.67;3.40;;;24.80;99.90;;;;;;5073163;28;20233;-69
2021/11/25 01:13:49;;;;;;;7.97;3.67;;;24.90;99.90;;;;;;5070044;28;20241;-69
2021/11/25 01:16:16;;;;;;;9.13;3.80;;;25.10;99.90;;;;;;5073401;28;20236;-70
2021/11/25 01:18:43;;;;;;;8.20;3.13;;;25.20;99.90;;;;;;5072398;28;20302;-69
2021/11/25 01:21:11;;;;;;;10.83;3.57;;;25.30;99.90;;;;;;5072650;28;20182;-68
2021/11/25 01:23:38;;;;;;;9.63;3.57;;;25.20;99.90;;;;;;5072408;28;20312;-69
2021/11/25 01:26:06;;;;;;;7.30;3.70;;;25.30;99.90;;;;;;5069986;28;20653;-69
2021/11/25 01:28:33;;;;;;;11.37;3.43;;;25.30;99.90;;;;;;5071659;28;20190;-68
2021/11/25 01:31:01;;;;;;;7.77;3.60;;;25.60;99.90;;;;;;5072164;28;20274;-70
2021/11/25 01:33:31;;;;;;;8.50;3.13;;;25.60;99.90;;;;;;5069407;28;20520;-71
2021/11/25 01:36:00;;;;;;;6.80;2.80;;;25.70;99.90;;;;;;5070981;28;20222;-69
2021/11/25 01:38:29;;;;;;;9.03;3.47;;;25.80;99.90;;;;;;5071038;28;20214;-69
2021/11/25 01:40:56;;;;;;;5.67;3.37;;;26.00;99.90;;;;;;5071819;28;20262;-70
2021/11/25 01:43:25;;;;;;;10.33;3.50;;;26.00;99.90;;;;;;5071449;28;20552;-71
2021/11/25 01:45:55;;;;;;;7.10;3.10;;;26.20;99.90;;;;;;5070612;28;20183;-70
2021/11/25 01:48:24;;;;;;;6.97;3.13;;;26.40;99.90;;;;;;5072559;28;20266;-71
2021/11/25 01:50:52;;;;;;;7.00;3.73;;;26.40;99.90;;;;;;5071199;28;20187;-71
2021/11/25 01:53:20;;;;;;;6.73;3.83;;;26.40;99.90;;;;;;5070468;28;20629;-71
2021/11/25 01:55:48;;;;;;;5.60;2.93;;;26.40;99.90;;;;;;5070645;28;20244;-71
2021/11/25 01:58:16;;;;;;;6.87;3.60;;;26.10;99.90;;;;;;5072472;28;20210;-71
2021/11/25 02:00:48;;;;;;;7.87;3.80;;;26.00;99.90;;;;;;5071802;28;20244;-70
2021/11/25 02:03:16;;;;;;;10.73;3.80;;;26.00;99.90;;;;;;5072203;28;20172;-71
2021/11/25 02:05:44;;;;;;;10.03;3.33;;;25.70;99.90;;;;;;5070641;28;20179;-71
2021/11/25 02:08:11;;;;;;;6.27;3.70;;;25.80;99.90;;;;;;5066447;28;20175;-70
2021/11/25 02:10:41;;;;;;;11.53;4.87;;;25.90;99.90;;;;;;5070238;28;20546;-70
2021/11/25 02:13:09;;;;;;;14.67;7.50;;;26.00;99.90;;;;;;5070885;28;20725;-71
2021/11/25 02:15:45;;;;;;;11.03;3.63;;;26.00;99.90;;;;;;5086656;27;20779;-71
2021/11/25 02:18:18;;;;;;;7.17;3.00;;;25.70;99.90;;;;;;5086241;28;20183;-70
2021/11/25 02:20:49;;;;;;;11.33;3.33;;;25.50;99.90;;;;;;5090194;28;20190;-69
2021/11/25 02:23:17;;;;;;;11.57;3.50;;;25.40;99.90;;;;;;5085380;28;20187;-69
2021/11/25 02:25:46;;;;;;;6.47;3.30;;;25.50;99.90;;;;;;5085319;28;20179;-69
2021/11/25 02:28:14;;;;;;;8.87;3.30;;;25.50;99.90;;;;;;5086311;28;20205;-69
2021/11/25 02:30:41;;;;;;;9.83;3.60;;;25.60;99.90;;;;;;5087662;28;20195;-70
2021/11/25 02:33:09;;;;;;;14.13;3.77;;;25.50;99.90;;;;;;5083129;28;20248;-70
2021/11/25 02:35:39;;;;;;;11.40;3.07;;;25.40;99.90;;;;;;5084670;28;20257;-69
2021/11/25 02:38:07;;;;;;;14.87;3.80;;;25.30;99.90;;;;;;5085963;28;20191;-68
2021/11/25 02:40:37;;;;;;;13.10;4.03;;;25.20;99.90;;;;;;5086939;28;20205;-70
2021/11/25 02:43:10;;;;;;;13.10;3.47;;;25.10;99.90;;;;;;5082974;28;20655;-71
2021/11/25 02:45:55;;;;;;;11.67;3.77;;;25.00;99.90;;;;;;5084779;27;20274;-70
2021/11/25 02:48:27;;;;;;;14.27;3.10;;;25.00;99.90;;;;;;5085236;28;20198;-71
2021/11/25 02:50:57;;;;;;;10.93;3.80;;;24.90;99.90;;;;;;5084101;28;20250;-72
2021/11/25 02:53:27;;;;;;;14.60;3.80;;;25.00;99.90;;;;;;5082788;28;20198;-71
2021/11/25 02:56:00;;;;;;;7.60;3.03;;;24.90;99.90;;;;;;5086177;27;20204;-71
2021/11/25 02:58:27;;;;;;;10.53;3.83;;;24.80;99.90;;;;;;5084728;28;20273;-70
2021/11/25 03:00:57;;;;;;;9.37;3.57;;;24.70;99.90;;;;;;5087451;28;20277;-69
2021/11/25 03:03:25;;;;;;;12.00;3.33;;;24.50;99.90;;;;;;5084785;28;20182;-70
2021/11/25 03:05:53;;;;;;;11.23;3.97;;;24.50;99.90;;;;;;5085388;28;20187;-70
2021/11/25 03:08:22;;;;;;;9.30;3.57;;;24.40;99.90;;;;;;5083702;28;20256;-70
2021/11/25 03:10:57;;;;;;;12.43;3.50;;;24.30;99.90;;;;;;5084191;28;20546;-70
2021/11/25 03:13:25;;;;;;;10.33;4.30;;;24.10;99.90;;;;;;5083114;28;20536;-70
2021/11/25 03:15:54;;;;;;;11.80;4.67;;;24.20;99.90;;;;;;5083738;28;20193;-70
2021/11/25 03:18:22;;;;;;;8.00;4.33;;;24.30;99.90;;;;;;5080231;28;20202;-70
2021/11/25 03:20:53;;;;;;;8.90;4.33;;;24.50;99.90;;;;;;5084754;28;20191;-71
2021/11/25 03:23:23;;;;;;;12.60;4.67;;;24.60;99.90;;;;;;5085076;28;20191;-71
2021/11/25 03:25:51;;;;;;;12.00;4.43;;;24.70;99.90;;;;;;5077104;28;20192;-70
2021/11/25 03:28:19;;;;;;;10.80;3.73;;;24.80;99.90;;;;;;5068366;28;20614;-70
2021/11/25 03:30:53;;;;;;;10.07;4.50;;;24.80;99.90;;;;;;5072324;28;20187;-71
2021/11/25 03:33:29;;;;;;;13.97;6.10;;;24.70;99.90;;;;;;5068310;28;20186;-71
2021/11/25 03:35:58;;;;;;;10.67;3.77;;;24.80;99.90;;;;;;5072730;28;20197;-71
2021/11/25 03:38:25;;;;;;;13.10;4.23;;;24.90;99.90;;;;;;5070411;28;20179;-69
2021/11/25 03:40:54;;;;;;;15.70;3.87;;;24.80;99.90;;;;;;5072376;28;20182;-71
2021/11/25 03:43:23;;;;;;;11.33;3.80;;;24.80;99.90;;;;;;5068598;28;20188;-68
2021/11/25 03:45:50;;;;;;;15.17;3.80;;;24.80;99.90;;;;;;5069201;28;20252;-71
2021/11/25 03:48:18;;;;;;;19.87;4.33;;;24.80;99.90;;;;;;5068508;28;20171;-69
2021/11/25 03:50:45;;;;;;;11.33;3.40;;;24.80;99.90;;;;;;5068223;28;20328;-69
2021/11/25 03:53:12;;;;;;;13.80;3.60;;;24.80;99.90;;;;;;5069065;28;20592;-69
2021/11/25 03:55:40;;;;;;;11.40;3.87;;;24.80;99.90;;;;;;5067292;28;20209;-69
2021/11/25 03:58:07;;;;;;;11.57;3.63;;;24.90;99.90;;;;;;5066513;28;20228;-69
2021/11/25 04:00:35;;;;;;;13.87;4.07;;;25.00;99.90;;;;;;5070025;28;20244;-69
2021/11/25 04:03:03;;;;;;;13.40;5.27;;;25.00;99.90;;;;;;5066686;28;20262;-70
2021/11/25 04:05:31;;;;;;;12.87;3.83;;;25.10;99.90;;;;;;5068857;28;20184;-69
2021/11/25 04:07:59;;;;;;;10.70;3.63;;;25.10;99.90;;;;;;5067867;28;20590;-69
2021/11/25 04:10:27;;;;;;;14.10;4.17;;;25.10;99.90;;;;;;5068602;28;20202;-69
2021/11/25 04:12:54;;;;;;;11.93;3.43;;;25.10;99.90;;;;;;5068817;28;20183;-69
2021/11/25 04:15:22;;;;;;;14.23;3.83;;;25.00;99.90;;;;;;5070191;28;20333;-70
2021/11/25 04:17:50;;;;;;;14.07;4.30;;;24.80;99.90;;;;;;5069052;28;20641;-69
2021/11/25 04:20:18;;;;;;;13.60;3.70;;;24.90;99.90;;;;;;5071528;28;20261;-69
2021/11/25 04:22:45;;;;;;;11.63;3.17;;;25.00;99.90;;;;;;5069078;28;20264;-67
2021/11/25 04:25:14;;;;;;;15.63;3.63;;;25.10;99.90;;;;;;5068303;28;20191;-69
2021/11/25 04:27:43;;;;;;;10.97;3.73;;;25.20;99.90;;;;;;5068716;28;20309;-70
2021/11/25 04:35:44;;;;;;;19.47;3.40;;;25.20;99.90;;;;;;5068036;28;20284;-69
2021/11/25 04:38:16;;;;;;;11.97;2.70;;;25.40;99.90;;;;;;5067640;28;20183;-70
2021/11/25 04:40:48;;;;;;;13.37;3.23;;;25.30;99.90;;;;;;5068624;28;20187;-69
2021/11/25 04:43:17;;;;;;;16.67;3.47;;;25.40;99.90;;;;;;5070046;28;20191;-70
2021/11/25 04:45:47;;;;;;;10.67;3.10;;;25.20;99.90;;;;;;5068162;28;20186;-71
2021/11/25 04:48:17;;;;;;;9.80;2.90;;;25.10;99.90;;;;;;5067309;28;20305;-71
2021/11/25 04:50:46;;;;;;;7.17;2.47;;;25.00;99.90;;;;;;5070806;28;20175;-70
2021/11/25 04:53:13;;;;;;;11.90;3.00;;;25.00;99.90;;;;;;5064553;28;20248;-70
2021/11/25 04:55:43;;;;;;;12.43;2.70;;;25.00;99.90;;;;;;5070533;28;20227;-70
2021/11/25 04:58:12;;;;;;;12.83;3.03;;;25.10;99.90;;;;;;5066371;28;20690;-70
2021/11/25 05:00:40;;;;;;;11.93;3.00;;;25.10;99.90;;;;;;5068551;28;20206;-71
2021/11/25 05:03:07;;;;;;;8.70;2.43;;;25.00;99.90;;;;;;5068158;28;21362;-71
2021/11/25 05:05:34;;;;;;;9.13;2.37;;;25.00;99.90;;;;;;5068044;28;20218;-69
2021/11/25 05:08:02;;;;;;;9.70;2.73;;;24.90;99.90;;;;;;5066874;28;20657;-69
2021/11/25 05:10:30;;;;;;;15.13;3.63;;;24.80;99.90;;;;;;5070295;28;20191;-71
2021/11/25 05:12:57;;;;;;;9.97;2.53;;;24.80;99.90;;;;;;5065252;28;20183;-71
2021/11/25 05:15:25;;;;;;;13.00;3.03;;;24.80;99.90;;;;;;5070401;28;20215;-71
2021/11/25 05:17:52;;;;;;;10.13;2.30;;;24.80;99.90;;;;;;5068744;28;20179;-70
2021/11/25 05:20:19;;;;;;;9.93;3.03;;;24.60;99.90;;;;;;5066882;28;20186;-71
2021/11/25 05:22:47;;;;;;;11.53;3.07;;;24.50;99.90;;;;;;5066912;28;20572;-71
2021/11/25 05:25:16;;;;;;;13.33;2.70;;;24.60;99.90;;;;;;5067705;28;20192;-71
2021/11/25 05:27:44;;;;;;;7.93;2.77;;;24.50;99.90;;;;;;5068348;28;20175;-71
2021/11/25 05:30:13;;;;;;;13.20;3.47;;;24.40;99.90;;;;;;5067276;28;20187;-71
2021/11/25 05:32:42;;;;;;;10.60;3.23;;;24.20;99.90;;;;;;5067523;28;20205;-70
2021/11/25 05:35:10;;;;;;;14.93;3.30;;;24.10;99.90;;;;;;5069275;28;20585;-71
2021/11/25 05:37:40;;;;;;;8.67;2.83;;;24.00;99.90;;;;;;5065700;28;20579;-74
2021/11/25 05:40:08;;;;;;;14.10;3.23;;;23.80;99.90;;;;;;5067806;28;20195;-71
2021/11/25 05:42:36;;;;;;;12.67;3.67;;;23.70;99.90;;;;;;5066848;28;20199;-71
2021/11/25 05:45:08;;;;;;;16.17;3.87;;;23.70;99.90;;;;;;5068103;28;20572;-71
2021/11/25 05:47:38;;;;;;;16.20;4.13;;;23.70;99.90;;;;;;5067766;28;20190;-71
2021/11/25 05:50:08;;;;;;;12.27;3.17;;;23.70;99.90;;;;;;5068488;28;20206;-71
2021/11/25 05:52:37;;;;;;;13.30;4.13;;;23.70;99.90;;;;;;5068292;28;20532;-70
2021/11/25 05:55:07;;;;;;;14.03;3.03;;;23.60;99.90;;;;;;5068968;28;20284;-71
2021/11/25 05:57:34;;;;;;;12.23;3.63;;;23.60;99.90;;;;;;5068906;28;20266;-70
2021/11/25 06:00:03;;;;;;;13.37;2.70;;;23.60;99.90;;;;;;5069352;28;20195;-70
2021/11/25 06:02:31;;;;;;;8.77;2.93;;;23.50;99.90;;;;;;5069102;28;20283;-70
2021/11/25 06:04:58;;;;;;;12.80;2.97;;;23.50;99.90;;;;;;5068601;28;20210;-71
2021/11/25 06:07:25;;;;;;;17.97;3.87;;;23.40;99.90;;;;;;5065956;28;20298;-70
2021/11/25 06:09:53;;;;;;;9.63;2.50;;;23.40;99.90;;;;;;5063420;28;20187;-70
2021/11/25 06:12:20;;;;;;;12.80;2.90;;;23.40;99.90;;;;;;5066764;28;20240;-70
2021/11/25 06:14:47;;;;;;;10.80;3.37;;;23.30;99.90;;;;;;5066756;28;20223;-70
2021/11/25 06:17:15;;;;;;;9.97;2.70;;;23.30;99.90;;;;;;5067055;28;20183;-70
2021/11/25 06:19:42;;;;;;;11.70;3.23;;;23.20;99.90;;;;;;5069968;28;20608;-70
2021/11/25 06:22:09;;;;;;;14.30;3.30;;;23.20;99.90;;;;;;5067932;28;20183;-70
2021/11/25 06:24:37;;;;;;;10.27;3.33;;;23.20;99.90;;;;;;5067951;28;20205;-69
2021/11/25 06:27:05;;;;;;;13.63;3.63;;;23.20;99.90;;;;;;5065829;28;20198;-71
2021/11/25 06:29:32;;;;;;;11.33;3.60;;;23.10;99.90;;;;;;5068033;28;20274;-69
2021/11/25 06:31:59;;;;;;;18.40;4.13;;;23.20;99.90;;;;;;5069377;28;20655;-69
2021/11/25 06:34:27;;;;;;;13.53;3.20;;;23.10;99.90;;;;;;5068816;28;20218;-69
2021/11/25 06:36:54;;;;;;;15.67;3.87;;;23.00;99.90;;;;;;5065421;28;20581;-68
2021/11/25 06:39:21;;;;;;;16.80;3.50;;;23.10;99.90;;;;;;5069855;28;20183;-70
2021/11/25 06:41:48;;;;;;;10.83;3.60;;;23.10;99.90;;;;;;5069816;28;20176;-70
2021/11/25 06:44:16;;;;;;;18.23;4.50;;;23.00;99.90;;;;;;5070839;28;20194;-71
2021/11/25 06:46:43;;;;;;;21.80;4.50;;;23.00;99.90;;;;;;5065722;28;20187;-73
2021/11/25 06:49:11;;;;;;;14.67;3.80;;;23.00;99.90;;;;;;5067657;28;20278;-73
2021/11/25 06:51:41;;;;;;;18.13;4.57;;;23.00;99.90;;;;;;5066966;28;20188;-76
2021/11/25 06:54:08;;;;;;;16.73;4.43;;;22.90;99.90;;;;;;5069301;28;20276;-77
2021/11/25 06:56:35;;;;;;;22.67;4.70;;;22.90;99.90;;;;;;5070223;28;20283;-68
2021/11/25 06:59:05;;;;;;;19.73;4.67;;;22.80;99.90;;;;;;5069042;28;20656;-66
2021/11/25 07:01:32;;;;;;;17.13;5.37;;;22.80;99.90;;;;;;5069419;28;20186;-66
2021/11/25 07:04:00;;;;;;;15.07;5.37;;;22.70;99.90;;;;;;5073047;28;20175;-67
2021/11/25 07:06:27;;;;;;;16.67;5.17;;;22.60;99.90;;;;;;5074438;28;20254;-67
2021/11/25 07:08:54;;;;;;;22.23;6.33;;;22.60;99.90;;;;;;5073186;28;20684;-68
2021/11/25 07:11:24;;;;;;;24.57;5.80;;;22.60;99.90;;;;;;5073709;28;20171;-69
2021/11/25 07:13:51;;;;;;;23.00;6.83;;;22.60;99.90;;;;;;5073958;28;20253;-68
2021/11/25 07:16:18;;;;;;;28.70;8.47;;;22.50;99.90;;;;;;5074265;28;20229;-69
2021/11/25 07:18:46;;;;;;;32.80;11.90;;;22.50;99.90;;;;;;5074137;28;20171;-68
2021/11/25 07:21:13;;;;;;;21.87;8.03;;;22.50;99.90;;;;;;5074398;28;20241;-68
2021/11/25 07:23:40;;;;;;;19.63;5.53;;;22.40;99.90;;;;;;5071053;28;20199;-70
2021/11/25 07:26:08;;;;;;;17.40;4.83;;;22.40;99.90;;;;;;5072710;28;20205;-68
2021/11/25 07:28:38;;;;;;;15.83;5.23;;;22.30;99.90;;;;;;5073210;28;20187;-69
2021/11/25 07:31:06;;;;;;;15.10;4.07;;;22.30;99.90;;;;;;5074005;28;20629;-69
2021/11/25 07:33:33;;;;;;;16.23;4.60;;;22.30;99.90;;;;;;5074574;28;20186;-70
2021/11/25 07:36:00;;;;;;;16.17;4.03;;;22.30;99.90;;;;;;5073522;28;20194;-69
2021/11/25 07:38:28;;;;;;;12.60;3.83;;;22.30;99.90;;;;;;5070833;28;20175;-69
2021/11/25 07:40:55;;;;;;;15.07;5.30;;;22.30;99.90;;;;;;5073809;28;20187;-69
2021/11/25 07:43:22;;;;;;;14.00;4.70;;;22.40;99.90;;;;;;5073857;28;20258;-69
2021/11/25 07:45:50;;;;;;;16.87;4.07;;;22.30;99.90;;;;;;5073289;28;20175;-69
2021/11/25 07:48:17;;;;;;;17.87;4.23;;;22.30;99.90;;;;;;5070332;28;20312;-69
2021/11/25 07:50:44;;;;;;;16.27;4.63;;;22.30;99.90;;;;;;5073695;28;20527;-68
2021/11/25 07:53:12;;;;;;;18.50;5.67;;;22.20;99.90;;;;;;5070949;28;20260;-69
2021/11/25 07:55:39;;;;;;;14.63;4.37;;;22.20;99.90;;;;;;5072330;28;20213;-70
2021/11/25 07:58:07;;;;;;;17.83;4.27;;;22.20;99.90;;;;;;5073115;28;20182;-69
2021/11/25 08:00:34;;;;;;;18.53;7.40;;;22.30;99.90;;;;;;5073730;28;20181;-70
2021/11/25 08:03:01;;;;;;;28.10;10.00;;;22.30;99.90;;;;;;5073313;28;20264;-70
2021/11/25 08:05:29;;;;;;;19.03;6.47;;;22.30;99.90;;;;;;5068383;28;20186;-69
2021/11/25 08:07:58;;;;;;;16.57;4.70;;;22.30;99.90;;;;;;5071456;28;20656;-69
2021/11/25 08:10:28;;;;;;;20.37;4.40;;;22.30;99.90;;;;;;5072910;28;20191;-68
2021/11/25 08:12:59;;;;;;;18.13;4.00;;;22.20;99.90;;;;;;5072008;28;20183;-69
2021/11/25 08:15:27;;;;;;;17.10;3.90;;;22.20;99.90;;;;;;5073534;28;20280;-71
2021/11/25 08:17:55;;;;;;;15.10;4.37;;;22.20;99.90;;;;;;5072672;28;20190;-69
2021/11/25 08:20:25;;;;;;;13.03;3.90;;;22.20;99.90;;;;;;5073370;28;20175;-72
2021/11/25 08:22:53;;;;;;;14.70;3.67;;;22.10;99.90;;;;;;5070103;28;20175;-71
2021/11/25 08:25:23;;;;;;;17.80;3.93;;;22.10;99.90;;;;;;5070283;28;20168;-71
2021/11/25 08:27:54;;;;;;;16.57;3.23;;;22.10;99.90;;;;;;5070110;28;20210;-72
2021/11/25 08:30:23;;;;;;;15.40;3.60;;;22.10;99.90;;;;;;5071049;28;20219;-68
2021/11/25 08:32:51;;;;;;;18.07;3.57;;;22.10;99.90;;;;;;5067440;28;20203;-68
2021/11/25 08:35:19;;;;;;;18.00;3.87;;;22.00;99.90;;;;;;5072115;28;20203;-69
2021/11/25 08:37:46;;;;;;;13.93;3.83;;;22.00;99.90;;;;;;5069099;28;20179;-70
2021/11/25 08:40:15;;;;;;;10.43;3.27;;;22.00;99.90;;;;;;5070610;28;20233;-71
2021/11/25 08:42:44;;;;;;;11.07;3.13;;;21.90;99.90;;;;;;5071765;28;20182;-68
2021/11/25 08:45:15;;;;;;;12.83;3.30;;;21.90;99.90;;;;;;5070125;28;20190;-71
2021/11/25 08:47:42;;;;;;;22.33;4.00;;;21.90;99.90;;;;;;5070563;28;20236;-68
2021/11/25 08:50:12;;;;;;;17.03;5.30;;;21.90;99.90;;;;;;5069164;28;20270;-71
2021/11/25 08:52:41;;;;;;;19.27;6.40;;;21.90;99.90;;;;;;5071728;28;20290;-67
2021/11/25 08:55:08;;;;;;;24.03;4.97;;;21.90;99.90;;;;;;5066155;28;20211;-69
2021/11/25 08:57:38;;;;;;;19.17;4.67;;;21.80;99.90;;;;;;5068783;28;20561;-69
2021/11/25 09:00:08;;;;;;;25.43;4.60;;;21.80;99.90;;;;;;5071554;28;20278;-68
2021/11/25 09:02:36;;;;;;;20.97;4.63;;;21.80;99.90;;;;;;5072696;28;20182;-69
2021/11/25 09:05:04;;;;;;;25.87;4.90;;;21.70;99.90;;;;;;5072678;28;20197;-69
2021/11/25 09:07:32;;;;;;;21.90;4.00;;;21.70;99.90;;;;;;5069418;28;20521;-70
2021/11/25 09:09:59;;;;;;;22.87;4.10;;;21.80;99.90;;;;;;5071366;28;20191;-70
2021/11/25 09:12:26;;;;;;;23.75;4.97;;;21.80;99.90;;;;;;5072071;28;20438;-70
2021/11/25 09:14:54;;;;;;;19.13;4.90;;;21.80;99.90;;;;;;5071815;28;20267;-68
2021/11/25 09:17:22;;;;;;;16.13;4.00;;;21.80;99.90;;;;;;5072551;28;20637;-68
2021/11/25 09:19:52;;;;;;;17.97;4.13;;;21.80;99.90;;;;;;5054982;28;20190;-68
2021/11/25 09:22:20;;;;;;;23.23;4.07;;;21.80;99.90;;;;;;5064504;28;20266;-69
2021/11/25 09:24:54;;;;;;;15.90;3.80;;;21.80;99.90;;;;;;5071513;28;20186;-69
2021/11/25 09:27:22;;;;;;;23.90;4.20;;;21.80;99.90;;;;;;5069858;27;20272;-69
2021/11/25 09:29:52;;;;;;;18.03;3.90;;;21.80;99.90;;;;;;5071963;28;20662;-70
2021/11/25 09:32:21;;;;;;;21.83;4.63;;;21.80;99.90;;;;;;5065757;28;20175;-68
2021/11/25 09:34:52;;;;;;;22.73;4.03;;;21.80;99.90;;;;;;5072250;28;20226;-68
2021/11/25 09:37:29;;;;;;;22.53;5.13;;;21.80;99.90;;;;;;5063504;28;20191;-68
2021/11/25 09:39:59;;;;;;;18.23;4.23;;;21.70;99.90;;;;;;5070927;28;20195;-68
2021/11/25 09:42:40;;;;;;;19.67;4.50;;;21.80;99.90;;;;;;5070368;28;20561;-68
2021/11/25 09:45:10;;;;;;;21.97;4.13;;;21.80;99.90;;;;;;5070750;28;20183;-69
2021/11/25 09:47:40;;;;;;;20.40;4.10;;;21.80;99.90;;;;;;5070990;28;20645;-68
2021/11/25 09:50:07;;;;;;;15.43;3.30;;;21.80;99.90;;;;;;5083616;28;20272;-68
2021/11/25 09:52:36;;;;;;;15.77;3.80;;;21.80;99.90;;;;;;5071847;28;20582;-68
2021/11/25 09:55:05;;;;;;;14.07;3.70;;;21.80;99.90;;;;;;5070045;28;20215;-69
2021/11/25 09:57:32;;;;;;;12.17;3.60;;;21.80;99.90;;;;;;5071379;28;20282;-69
2021/11/25 10:00:00;;;;;;;14.60;3.90;;;21.80;99.90;;;;;;5053203;28;20660;-68
2021/11/25 10:02:28;;;;;;;15.23;3.20;;;21.90;99.90;;;;;;5070258;28;20767;-69
2021/11/25 10:04:59;;;;;;;15.40;3.97;;;21.90;99.90;;;;;;5070747;28;20190;-69
2021/11/25 10:07:45;;;;;;;12.40;3.33;;;21.90;99.90;;;;;;5064546;28;20183;-69
2021/11/25 10:10:27;;;;;;;12.87;3.50;;;21.90;99.90;;;;;;5066457;28;20221;-69
2021/11/25 10:13:02;;;;;;;16.00;3.90;;;21.90;99.90;;;;;;5069896;28;20269;-70
2021/11/25 10:15:41;;;;;;;17.63;4.40;;;21.90;99.90;;;;;;5071506;28;20230;-70
2021/11/25 10:18:19;;;;;;;21.07;5.00;;;21.90;99.90;;;;;;5069042;28;20233;-70
2021/11/25 10:20:52;;;;;;;13.10;4.47;;;21.90;99.90;;;;;;5070075;28;20186;-70
2021/11/25 10:23:29;;;;;;;16.70;4.27;;;21.90;99.90;;;;;;5070485;28;20218;-70
2021/11/25 10:25:59;;;;;;;20.47;5.50;;;21.90;99.90;;;;;;5070897;28;20221;-71
2021/11/25 10:28:53;;;;;;;12.53;4.20;;;21.90;99.90;;;;;;5069241;28;20190;-70
2021/11/25 10:31:32;;;;;;;12.57;4.13;;;21.80;99.90;;;;;;5092357;28;21141;-70
2021/11/25 10:34:17;;;;;;;9.07;3.67;;;21.80;99.90;;;;;;5070078;28;20198;-70
2021/11/25 10:42:17;;;;;;;17.93;4.10;;;21.90;99.90;;;;;;5073666;28;20186;-70
2021/11/25 10:44:52;;;;;;;14.00;4.23;;;21.80;99.90;;;;;;5074706;28;20183;-71
2021/11/25 10:47:25;;;;;;;14.50;4.20;;;21.80;99.90;;;;;;5074308;28;20309;-71
2021/11/25 10:49:57;;;;;;;20.67;4.23;;;21.70;99.90;;;;;;5074355;28;20183;-71
2021/11/25 10:52:35;;;;;;;11.97;4.70;;;21.70;99.90;;;;;;5071867;28;20192;-71
2021/11/25 10:55:13;;;;;;;12.90;4.63;;;21.70;99.90;;;;;;5074084;27;20199;-71
2021/11/25 10:57:54;;;;;;;15.87;4.77;;;21.70;99.90;;;;;;5073740;28;20270;-71
2021/11/25 11:00:33;;;;;;;11.40;3.93;;;21.70;99.90;;;;;;5074183;28;20224;-71
2021/11/25 11:03:10;;;;;;;14.97;4.43;;;21.70;99.90;;;;;;5074299;28;20818;-71
2021/11/25 11:06:03;;;;;;;13.30;3.63;;;21.70;99.90;;;;;;5069840;28;20190;-71
2021/11/25 11:08:44;;;;;;;18.97;4.40;;;21.70;99.90;;;;;;5073715;28;20241;-71
2021/11/25 11:11:14;;;;;;;17.83;4.60;;;21.70;99.90;;;;;;5071560;28;20183;-71
2021/11/25 11:14:13;;;;;;;16.73;4.10;;;21.60;99.90;;;;;;5072667;28;20242;-72
2021/11/25 11:16:44;;;;;;;16.67;4.47;;;21.50;99.90;;;;;;5074423;28;20266;-71
2021/11/25 11:19:20;;;;;;;26.30;5.13;;;21.50;99.90;;;;;;5074963;28;20187;-71
2021/11/25 11:21:50;;;;;;;23.40;5.73;;;21.40;99.90;;;;;;5071684;28;20480;-71
2021/11/25 11:24:30;;;;;;;33.70;15.70;;;21.40;99.90;;;;;;5074817;28;20527;-71
2021/11/25 11:27:02;;;;;;;30.80;10.13;;;21.40;99.90;;;;;;5071480;28;20648;-71
2021/11/25 11:29:34;;;;;;;31.30;6.97;;;21.40;99.90;;;;;;5074120;28;20266;-71
2021/11/25 11:32:09;;;;;;;23.57;5.03;;;21.40;99.90;;;;;;5074109;28;20187;-71
2021/11/25 11:34:39;;;;;;;21.97;4.77;;;21.40;99.90;;;;;;5073561;28;20211;-71
2021/11/25 11:37:07;;;;;;;25.43;4.80;;;21.30;99.90;;;;;;5073648;28;20558;-71
2021/11/25 11:39:34;;;;;;;23.73;4.73;;;21.40;99.90;;;;;;5072579;28;20245;-72
2021/11/25 11:42:04;;;;;;;22.37;4.70;;;21.30;99.90;;;;;;5072872;28;20195;-71
2021/11/25 11:44:31;;;;;;;23.07;6.03;;;21.30;99.90;;;;;;5073928;28;20254;-72
2021/11/25 11:47:06;;;;;;;26.93;5.20;;;21.30;99.90;;;;;;5073740;28;20179;-71
2021/11/25 11:49:35;;;;;;;32.13;13.63;;;21.30;99.90;;;;;;5072525;28;20190;-71
2021/11/25 11:52:07;;;;;;;36.90;13.43;;;21.30;99.90;;;;;;5072962;28;20210;-72
2021/11/25 11:54:49;;;;;;;32.47;9.83;;;21.30;99.90;;;;;;5073705;28;20684;-71
2021/11/25 11:57:30;;;;;;;24.53;5.97;;;21.30;99.90;;;;;;5067641;28;20266;-72
2021/11/25 12:00:18;;;;;;;27.40;6.07;;;21.30;99.90;;;;;;5073557;28;21191;-71
2021/11/25 12:02:51;;;;;;;23.93;4.80;;;21.30;99.90;;;;;;5072929;28;20325;-72
2021/11/25 12:05:46;;;;;;;21.83;4.60;;;21.30;99.90;;;;;;5073279;28;20209;-72
2021/11/25 12:08:24;;;;;;;26.07;4.97;;;21.30;99.90;;;;;;5067975;28;20224;-72
2021/11/25 12:11:13;;;;;;;25.93;6.00;;;21.30;99.90;;;;;;5072060;28;20183;-71
2021/11/25 12:13:56;;;;;;;27.13;5.80;;;21.30;99.90;;;;;;5072209;28;20310;-72
2021/11/25 12:16:29;;;;;;;20.60;4.87;;;21.30;99.90;;;;;;5074189;28;20183;-72
2021/11/25 12:18:58;;;;;;;19.30;5.37;;;21.30;99.90;;;;;;5073658;28;20669;-71
2021/11/25 12:21:33;;;;;;;18.77;4.83;;;21.40;99.90;;;;;;5073800;28;20222;-72
2021/11/25 12:24:11;;;;;;;26.17;5.87;;;21.40;99.90;;;;;;5072033;28;20744;-72
2021/11/25 12:26:58;;;;;;;24.97;5.37;;;21.40;99.90;;;;;;5073132;28;20175;-72
2021/11/25 12:29:36;;;;;;;19.20;5.00;;;21.40;99.90;;;;;;5068466;28;20621;-72
2021/11/25 12:32:45;;;;;;;18.37;4.77;;;21.50;99.90;;;;;;5069195;28;20187;-72
2021/11/25 12:35:21;;;;;;;23.43;5.07;;;21.50;99.90;;;;;;5060711;28;20688;-72
2021/11/25 12:37:50;;;;;;;16.20;4.67;;;21.50;99.90;;;;;;5072363;28;20186;-73
2021/11/25 12:40:42;;;;;;;18.53;4.40;;;21.50;99.90;;;;;;5073242;28;20206;-74
2021/11/25 12:43:15;;;;;;;18.83;3.80;;;21.50;99.90;;;;;;5069408;28;20197;-72
2021/11/25 12:45:48;;;;;;;21.90;4.50;;;21.50;99.90;;;;;;5071693;28;20187;-72
2021/11/25 12:48:30;;;;;;;15.17;4.30;;;21.50;99.90;;;;;;5071625;28;20195;-72
2021/11/25 12:51:05;;;;;;;24.83;4.53;;;21.50;99.90;;;;;;5072670;28;20195;-72
2021/11/25 12:53:39;;;;;;;21.93;4.63;;;21.50;99.90;;;;;;5072810;28;20190;-71
2021/11/25 12:56:33;;;;;;;19.30;4.90;;;21.50;99.90;;;;;;5065372;28;20198;-72
2021/11/25 12:59:09;;;;;;;18.73;4.43;;;21.50;99.90;;;;;;5071204;28;20225;-72
2021/11/25 13:01:41;;;;;;;15.83;4.70;;;21.50;99.90;;;;;;5072673;28;20190;-72
2021/11/25 13:04:21;;;;;;;18.07;4.87;;;21.50;99.90;;;;;;5073111;28;20572;-72
2021/11/25 13:07:03;;;;;;;13.53;4.97;;;21.50;99.90;;;;;;5072470;28;20197;-72